Time;durP1;ratioP1;P1;durP2;ratioP2;P2;SDS_P1;SDS_P2;PMS_P1;PMS_P2;Temp;Humidity;BMP_temperature;BMP_pressure;BME280_temperature;BME280_humidity;BME280_pressure;Samples;Min_cycle;Max_cycle;Signal;HPM_P1;HPM_P2
2022/03/08 00:00:48;;;;;;;79.95;37.90;;;;;;;0.92;72.47;100861.28;5034183;28;20558;-72
2022/03/08 00:03:13;;;;;;;69.20;37.55;;;;;;;0.94;72.57;100864.75;5031441;28;20087;-72
2022/03/08 00:05:39;;;;;;;66.38;36.50;;;;;;;0.99;72.02;100870.69;5033708;28;20029;-72
2022/03/08 00:08:05;;;;;;;75.00;36.53;;;;;;;0.98;71.97;100874.25;5031136;28;20021;-72
2022/03/08 00:10:31;;;;;;;66.18;34.90;;;;;;;0.95;71.90;100871.72;5029098;28;20535;-71
2022/03/08 00:12:56;;;;;;;70.38;37.10;;;;;;;1.01;71.76;100870.63;5029268;28;20779;-72
2022/03/08 00:15:25;;;;;;;69.38;37.03;;;;;;;1.03;71.43;100882.00;5037025;28;20082;-72
2022/03/08 00:17:52;;;;;;;77.93;39.42;;;;;;;1.09;70.49;100879.94;5029850;28;20708;-72
2022/03/08 00:20:18;;;;;;;76.72;38.95;;;;;;;1.15;70.49;100885.00;5032113;28;20470;-72
2022/03/08 00:22:44;;;;;;;81.95;39.72;;;;;;;1.12;70.48;100877.19;5029220;28;20044;-72
2022/03/08 00:25:12;;;;;;;74.65;38.05;;;;;;;1.07;70.64;100875.66;5035598;28;20539;-72
2022/03/08 00:27:38;;;;;;;72.35;36.50;;;;;;;1.04;70.82;100859.94;5027779;28;20437;-72
2022/03/08 00:30:07;;;;;;;73.00;38.20;;;;;;;1.00;70.18;100861.81;5027106;28;20036;-72
2022/03/08 00:32:33;;;;;;;68.75;35.63;;;;;;;1.03;70.34;100874.06;5034309;28;20038;-72
2022/03/08 00:34:58;;;;;;;73.28;36.55;;;;;;;1.03;70.10;100864.34;5033248;28;20373;-72
2022/03/08 00:37:24;;;;;;;73.75;39.28;;;;;;;1.06;70.12;100882.72;5031951;28;20033;-72
2022/03/08 00:39:50;;;;;;;70.38;36.50;;;;;;;1.06;70.34;100884.50;5032732;28;20056;-72
2022/03/08 00:42:15;;;;;;;68.95;36.63;;;;;;;1.09;70.01;100869.38;5032024;28;20032;-72
2022/03/08 00:44:43;;;;;;;67.32;36.53;;;;;;;1.07;69.64;100873.88;5031214;28;20040;-72
2022/03/08 00:47:09;;;;;;;71.78;36.83;;;;;;;1.09;69.76;100879.06;5033556;28;20036;-72
2022/03/08 00:49:36;;;;;;;69.72;38.00;;;;;;;1.04;69.14;100868.72;5035789;28;20029;-72
2022/03/08 00:52:02;;;;;;;69.60;36.38;;;;;;;1.04;69.30;100871.38;5035192;28;20040;-72
2022/03/08 00:54:28;;;;;;;68.40;36.63;;;;;;;1.04;68.65;100875.78;5025659;28;20033;-72
2022/03/08 00:56:54;;;;;;;66.85;35.97;;;;;;;1.02;68.44;100881.13;5038926;28;20492;-72
2022/03/08 00:59:19;;;;;;;61.63;34.80;;;;;;;1.06;67.62;100861.59;5024286;28;20061;-72
2022/03/08 01:01:44;;;;;;;63.10;34.65;;;;;;;1.05;67.66;100864.28;5028849;28;20040;-72
2022/03/08 01:04:10;;;;;;;64.18;34.13;;;;;;;0.95;67.49;100862.94;5035046;28;20022;-72
2022/03/08 01:06:35;;;;;;;63.83;34.08;;;;;;;0.89;67.94;100861.41;5018648;28;20045;-72
2022/03/08 01:09:02;;;;;;;70.32;35.33;;;;;;;0.91;68.13;100862.22;5039366;28;20478;-71
2022/03/08 01:11:28;;;;;;;68.90;34.15;;;;;;;0.86;68.27;100856.25;5030736;28;20100;-72
2022/03/08 01:13:54;;;;;;;72.38;36.63;;;;;;;0.87;68.08;100871.16;5027919;28;20112;-71
2022/03/08 01:16:20;;;;;;;65.30;34.22;;;;;;;0.85;68.16;100872.16;5030595;28;20040;-72
2022/03/08 01:18:47;;;;;;;66.05;35.58;;;;;;;0.81;68.11;100868.75;5031285;28;20034;-72
2022/03/08 01:21:14;;;;;;;69.93;36.13;;;;;;;0.82;67.88;100867.84;5023919;28;20025;-72
2022/03/08 01:23:40;;;;;;;66.30;35.75;;;;;;;0.75;67.66;100863.75;5026085;28;20462;-72
2022/03/08 01:26:06;;;;;;;62.90;33.67;;;;;;;0.79;67.74;100867.97;5026308;28;20044;-72
2022/03/08 01:28:31;;;;;;;68.38;33.80;;;;;;;0.80;66.96;100869.69;5027154;28;20029;-72
2022/03/08 01:30:57;;;;;;;71.65;34.20;;;;;;;0.79;67.15;100869.75;5036714;28;20051;-72
2022/03/08 01:33:22;;;;;;;63.95;35.08;;;;;;;0.70;67.55;100848.97;5031876;28;20385;-71
2022/03/08 01:35:48;;;;;;;73.30;35.25;;;;;;;0.68;66.98;100854.31;5029638;28;20033;-72
2022/03/08 01:38:13;;;;;;;66.53;34.50;;;;;;;0.71;67.21;100867.41;5030828;28;20066;-72
2022/03/08 01:40:39;;;;;;;65.53;35.30;;;;;;;0.68;66.77;100862.25;5035107;28;20045;-71
2022/03/08 01:43:05;;;;;;;65.78;33.90;;;;;;;0.60;67.13;100858.19;5037388;28;20054;-72
2022/03/08 01:45:33;;;;;;;66.75;34.25;;;;;;;0.67;66.64;100857.06;5038938;28;20086;-72
2022/03/08 01:47:58;;;;;;;61.17;32.60;;;;;;;0.61;66.65;100862.56;5028120;28;20509;-72
2022/03/08 01:50:24;;;;;;;71.20;35.83;;;;;;;0.54;66.24;100838.16;5034761;28;20029;-72
2022/03/08 01:52:50;;;;;;;63.20;34.20;;;;;;;0.50;66.33;100855.06;5033777;28;20075;-72
2022/03/08 01:55:16;;;;;;;64.93;33.35;;;;;;;0.51;66.71;100877.03;5032729;28;20709;-72
2022/03/08 01:57:44;;;;;;;73.30;33.90;;;;;;;0.45;66.63;100870.19;5037282;28;20083;-72
2022/03/08 02:00:13;;;;;;;67.55;33.00;;;;;;;0.47;66.51;100864.84;5035911;28;20117;-72
2022/03/08 02:02:43;;;;;;;60.72;32.00;;;;;;;0.46;66.28;100868.41;5019817;28;20025;-72
2022/03/08 02:05:09;;;;;;;67.13;32.90;;;;;;;0.42;66.04;100865.03;5037966;28;20032;-72
2022/03/08 02:07:35;;;;;;;64.47;31.65;;;;;;;0.44;66.05;100868.47;5035517;28;20569;-72
2022/03/08 02:10:00;;;;;;;62.38;34.17;;;;;;;0.42;66.09;100866.81;5036916;28;20096;-72
2022/03/08 02:12:26;;;;;;;63.45;33.10;;;;;;;0.37;66.24;100866.13;5044383;28;20029;-73
2022/03/08 02:14:51;;;;;;;60.83;32.45;;;;;;;0.42;66.32;100866.81;5036881;28;20041;-72
2022/03/08 02:17:17;;;;;;;58.05;30.85;;;;;;;0.41;66.34;100870.34;5038223;28;20028;-72
2022/03/08 02:19:42;;;;;;;51.80;28.65;;;;;;;0.35;65.85;100860.91;5033114;28;20041;-72
2022/03/08 02:22:08;;;;;;;62.47;31.33;;;;;;;0.46;65.88;100877.19;5034892;28;20048;-72
2022/03/08 02:24:33;;;;;;;57.13;29.73;;;;;;;0.44;66.03;100876.38;5036612;28;20265;-72
2022/03/08 02:27:00;;;;;;;57.17;29.88;;;;;;;0.46;65.79;100877.19;5035661;28;20501;-72
2022/03/08 02:29:27;;;;;;;57.95;30.88;;;;;;;0.45;65.86;100866.69;5026997;28;20018;-72
2022/03/08 02:31:53;;;;;;;53.58;28.38;;;;;;;0.47;65.53;100868.34;5028319;28;20450;-72
2022/03/08 02:34:18;;;;;;;51.85;28.23;;;;;;;0.45;65.62;100866.69;5029508;28;20029;-72
2022/03/08 02:37:04;;;;;;;48.97;26.98;;;;;;;0.50;65.61;100862.09;5033426;28;20025;-72
2022/03/08 02:39:30;;;;;;;52.42;27.15;;;;;;;0.46;66.06;100853.47;5021632;28;20046;-72
2022/03/08 02:41:56;;;;;;;47.22;25.40;;;;;;;0.39;66.88;100859.88;5030905;28;20040;-72
2022/03/08 02:44:21;;;;;;;48.38;25.15;;;;;;;0.28;67.39;100840.06;5028022;28;20035;-72
2022/03/08 02:46:47;;;;;;;47.25;23.63;;;;;;;0.43;68.42;100861.47;5025390;28;20056;-72
2022/03/08 02:49:12;;;;;;;41.97;21.77;;;;;;;0.44;69.30;100876.38;5031193;28;20032;-72
2022/03/08 02:51:38;;;;;;;38.38;21.90;;;;;;;0.33;70.68;100859.25;5029078;28;20041;-72
2022/03/08 02:54:03;;;;;;;33.22;19.58;;;;;;;0.38;71.76;100858.16;5035472;28;20047;-72
2022/03/08 02:56:30;;;;;;;31.75;18.70;;;;;;;0.38;73.14;100870.50;5036193;28;20063;-72
2022/03/08 02:58:55;;;;;;;34.13;18.38;;;;;;;0.45;74.33;100879.91;5030476;28;20060;-72
2022/03/08 03:01:21;;;;;;;29.85;16.98;;;;;;;0.43;76.31;100873.81;5023025;28;20061;-72
2022/03/08 03:03:47;;;;;;;27.15;15.13;;;;;;;0.41;77.80;100862.44;5033769;28;20056;-66
2022/03/08 03:06:12;;;;;;;27.77;15.43;;;;;;;0.43;79.47;100855.34;5024127;28;20026;-67
2022/03/08 03:08:37;;;;;;;28.65;15.07;;;;;;;0.34;80.87;100846.00;5022779;28;20075;-67
2022/03/08 03:11:03;;;;;;;24.75;14.65;;;;;;;0.44;82.15;100865.84;5028147;28;20025;-67
2022/03/08 03:13:28;;;;;;;22.63;14.30;;;;;;;0.45;83.41;100867.53;5024816;28;20487;-67
2022/03/08 03:15:54;;;;;;;22.90;13.18;;;;;;;0.45;83.98;100867.53;5026356;28;20033;-67
2022/03/08 03:18:19;;;;;;;20.83;13.13;;;;;;;0.50;84.24;100873.53;5028469;28;20453;-67
2022/03/08 03:20:45;;;;;;;27.15;15.07;;;;;;;0.50;84.84;100865.59;5024409;28;20079;-68
2022/03/08 03:23:10;;;;;;;22.70;13.48;;;;;;;0.42;85.40;100865.03;5028489;28;20406;-67
2022/03/08 03:25:36;;;;;;;22.85;13.80;;;;;;;0.48;85.55;100883.25;5023508;28;20481;-67
2022/03/08 03:28:01;;;;;;;21.42;13.25;;;;;;;0.41;86.07;100867.72;5024162;28;20025;-67
2022/03/08 03:30:27;;;;;;;23.55;13.32;;;;;;;0.43;86.38;100865.88;5021582;28;20120;-67
2022/03/08 03:32:52;;;;;;;23.45;12.98;;;;;;;0.47;86.97;100865.72;5025318;28;20116;-67
2022/03/08 03:35:18;;;;;;;18.73;10.73;;;;;;;0.51;87.34;100862.03;5027225;28;20245;-67
2022/03/08 03:37:43;;;;;;;20.02;11.80;;;;;;;0.67;88.12;100867.59;5022037;28;20037;-67
2022/03/08 03:40:10;;;;;;;20.65;11.23;;;;;;;0.61;88.67;100863.41;5029691;28;20042;-67
2022/03/08 03:42:36;;;;;;;18.92;11.25;;;;;;;0.73;89.20;100870.84;5019730;28;20801;-67
2022/03/08 03:45:03;;;;;;;20.17;11.30;;;;;;;0.72;89.76;100860.34;5020112;28;20025;-67
2022/03/08 03:47:28;;;;;;;15.02;9.15;;;;;;;0.76;89.59;100860.19;5035635;28;20193;-72
2022/03/08 03:49:54;;;;;;;16.77;9.85;;;;;;;0.71;89.61;100851.56;5042000;28;20064;-72
2022/03/08 03:52:19;;;;;;;17.23;9.73;;;;;;;0.77;90.05;100867.16;5025694;28;20072;-72
2022/03/08 03:54:45;;;;;;;19.15;10.68;;;;;;;0.74;89.82;100867.28;5035462;28;20025;-72
2022/03/08 03:57:11;;;;;;;14.43;9.13;;;;;;;0.72;90.28;100868.28;5034356;28;20734;-72
2022/03/08 03:59:38;;;;;;;19.02;10.05;;;;;;;0.69;89.77;100874.53;5032974;28;20036;-72
2022/03/08 04:02:04;;;;;;;15.18;9.55;;;;;;;0.66;89.98;100864.09;5027863;28;20496;-67
2022/03/08 04:04:30;;;;;;;16.25;10.02;;;;;;;0.62;89.78;100873.06;5025338;28;20041;-67
2022/03/08 04:06:55;;;;;;;18.35;10.10;;;;;;;0.57;89.77;100864.44;5029898;28;20112;-67
2022/03/08 04:09:21;;;;;;;16.80;9.90;;;;;;;0.49;89.56;100858.63;5023836;28;20056;-67
2022/03/08 04:11:46;;;;;;;15.48;9.32;;;;;;;0.52;89.37;100871.69;5026210;28;20111;-67
2022/03/08 04:14:12;;;;;;;16.88;10.00;;;;;;;0.49;89.33;100869.16;5025822;28;20052;-67
2022/03/08 04:16:38;;;;;;;17.83;10.23;;;;;;;0.46;89.01;100864.00;5029677;28;20033;-67
2022/03/08 04:19:03;;;;;;;19.17;10.55;;;;;;;0.46;89.29;100871.94;5031799;28;20120;-67
2022/03/08 04:21:29;;;;;;;18.27;10.35;;;;;;;0.43;89.59;100872.03;5031729;28;20171;-67
2022/03/08 04:23:54;;;;;;;17.38;9.82;;;;;;;0.43;89.42;100876.44;5028134;28;20029;-67
2022/03/08 04:26:19;;;;;;;20.35;11.30;;;;;;;0.33;88.94;100865.38;5033442;28;20021;-67
2022/03/08 04:28:45;;;;;;;21.58;12.00;;;;;;;0.36;89.28;100875.84;5031542;28;20119;-68
2022/03/08 04:31:10;;;;;;;29.83;15.45;;;;;;;0.31;89.46;100867.22;5023312;28;20029;-67
2022/03/08 04:33:36;;;;;;;36.42;19.70;;;;;;;0.27;89.38;100873.53;5037216;28;20029;-72
2022/03/08 04:36:03;;;;;;;35.35;19.58;;;;;;;0.23;89.39;100873.69;5037216;28;20025;-72
2022/03/08 04:38:28;;;;;;;37.30;20.45;;;;;;;0.17;89.66;100869.50;5039933;28;20704;-72
2022/03/08 04:40:54;;;;;;;34.40;17.40;;;;;;;0.03;89.54;100852.47;5032979;28;20088;-72
2022/03/08 04:43:19;;;;;;;27.55;16.33;;;;;;;0.14;89.74;100877.53;5033454;28;20025;-72
2022/03/08 04:45:45;;;;;;;27.50;14.82;;;;;;;0.06;90.06;100881.38;5041063;28;20044;-72
2022/03/08 04:48:11;;;;;;;26.50;14.98;;;;;;;0.03;90.47;100881.47;5028684;28;20052;-72
2022/03/08 04:50:37;;;;;;;27.17;14.88;;;;;;;-0.03;90.22;100878.13;5027899;28;20079;-72
2022/03/08 04:53:03;;;;;;;23.92;13.77;;;;;;;-0.14;90.08;100872.41;5029897;28;21340;-72
2022/03/08 04:55:28;;;;;;;25.65;14.43;;;;;;;-0.16;89.43;100868.94;5052510;28;20041;-72
2022/03/08 04:57:54;;;;;;;23.10;12.70;;;;;;;-0.18;89.44;100876.06;5026442;28;20025;-72
2022/03/08 05:00:19;;;;;;;20.67;13.05;;;;;;;-0.34;89.39;100845.88;5020242;28;20025;-72
2022/03/08 05:02:46;;;;;;;22.75;13.23;;;;;;;-0.28;90.03;100866.75;5031784;28;20021;-72
2022/03/08 05:05:13;;;;;;;20.98;12.98;;;;;;;-0.30;90.20;100872.97;5030329;28;20046;-72
2022/03/08 05:07:39;;;;;;;20.23;12.77;;;;;;;-0.42;89.92;100858.44;5024579;28;20040;-73
2022/03/08 05:10:07;;;;;;;27.80;14.60;;;;;;;-0.39;90.23;100868.88;5038530;28;20029;-72
2022/03/08 05:12:34;;;;;;;23.30;13.60;;;;;;;-0.47;90.47;100857.78;5022877;28;20033;-72
2022/03/08 05:14:59;;;;;;;25.75;13.88;;;;;;;-0.48;90.43;100860.47;5028104;28;20091;-72
2022/03/08 05:17:26;;;;;;;25.98;13.85;;;;;;;-0.55;90.25;100866.84;5030935;28;20042;-72
2022/03/08 05:19:51;;;;;;;23.20;13.25;;;;;;;-0.56;89.83;100867.75;5029202;28;20478;-71
2022/03/08 05:22:17;;;;;;;29.23;13.88;;;;;;;-0.64;89.96;100870.63;5033302;28;20035;-72
2022/03/08 05:24:43;;;;;;;23.27;13.30;;;;;;;-0.65;89.52;100868.91;5032117;28;20029;-73
2022/03/08 05:27:08;;;;;;;27.45;14.82;;;;;;;-0.67;89.72;100878.63;5030251;28;20029;-72
2022/03/08 05:29:34;;;;;;;25.70;15.00;;;;;;;-0.68;89.76;100883.97;5029863;28;20033;-72
2022/03/08 05:32:00;;;;;;;28.08;14.82;;;;;;;-0.75;89.94;100872.78;5024043;28;20931;-72
2022/03/08 05:34:25;;;;;;;27.88;14.90;;;;;;;-0.74;89.97;100878.91;5033266;28;20025;-72
2022/03/08 05:36:51;;;;;;;27.35;14.80;;;;;;;-0.78;89.72;100874.63;5033003;28;20053;-72
2022/03/08 05:39:16;;;;;;;25.77;14.98;;;;;;;-0.77;90.17;100884.28;5032033;28;20700;-72
2022/03/08 05:41:42;;;;;;;25.95;14.95;;;;;;;-0.82;90.20;100875.66;5041268;28;20021;-72
2022/03/08 05:44:07;;;;;;;29.73;16.35;;;;;;;-0.77;89.92;100892.19;5021894;28;20030;-72
2022/03/08 05:46:33;;;;;;;28.95;16.00;;;;;;;-0.80;90.01;100882.56;5030156;28;20117;-72
2022/03/08 05:48:58;;;;;;;28.67;16.95;;;;;;;-0.84;90.03;100872.22;5029616;28;20478;-72
2022/03/08 05:51:24;;;;;;;30.25;17.17;;;;;;;-0.85;89.93;100875.75;5030255;28;20025;-71
2022/03/08 05:53:49;;;;;;;39.30;20.10;;;;;;;-0.80;89.74;100879.09;5027475;28;20116;-72
2022/03/08 05:56:15;;;;;;;36.08;19.45;;;;;;;-0.84;89.11;100882.75;5030304;28;20029;-72
2022/03/08 05:58:41;;;;;;;46.75;22.20;;;;;;;-0.82;89.45;100880.91;5022865;28;20048;-72
2022/03/08 06:01:06;;;;;;;48.00;23.75;;;;;;;-0.81;89.24;100878.22;5017885;28;20019;-71
2022/03/08 06:03:31;;;;;;;52.15;25.52;;;;;;;-0.81;89.37;100887.94;5024978;28;20056;-71
2022/03/08 06:05:57;;;;;;;46.63;23.33;;;;;;;-0.78;89.43;100895.69;5029251;28;20033;-71
2022/03/08 06:08:23;;;;;;;43.42;23.02;;;;;;;-0.77;89.21;100893.00;5021939;28;20494;-70
2022/03/08 06:10:49;;;;;;;44.70;23.52;;;;;;;-0.73;89.11;100893.78;5028312;28;20044;-70
2022/03/08 06:13:14;;;;;;;45.55;24.05;;;;;;;-0.71;89.00;100894.59;5037961;28;20025;-70
2022/03/08 06:15:40;;;;;;;41.88;21.52;;;;;;;-0.70;88.10;100886.66;5034906;28;20026;-70
2022/03/08 06:18:05;;;;;;;44.58;22.00;;;;;;;-0.60;87.54;100897.75;5039863;28;20502;-70
2022/03/08 06:20:31;;;;;;;42.30;22.52;;;;;;;-0.59;87.81;100894.19;5045047;28;20075;-70
2022/03/08 06:22:56;;;;;;;41.92;22.50;;;;;;;-0.44;86.53;100901.56;5041572;28;20104;-70
2022/03/08 06:25:22;;;;;;;42.05;21.67;;;;;;;-0.39;85.73;100908.41;5038919;28;20032;-70
2022/03/08 06:27:48;;;;;;;42.40;22.23;;;;;;;-0.34;85.37;100898.59;5039947;28;20105;-70
2022/03/08 06:30:14;;;;;;;40.00;22.73;;;;;;;-0.24;84.10;100902.63;5037998;28;20025;-70
2022/03/08 06:32:39;;;;;;;40.33;22.10;;;;;;;-0.18;83.32;100891.00;5033938;28;20056;-70
2022/03/08 06:35:05;;;;;;;47.22;23.40;;;;;;;-0.13;82.54;100904.88;5038743;28;20020;-70
2022/03/08 06:37:30;;;;;;;41.08;21.35;;;;;;;-0.02;82.01;100906.22;5034911;28;20094;-70
2022/03/08 06:39:56;;;;;;;44.80;23.92;;;;;;;0.02;81.74;100901.69;5036052;28;20495;-70
2022/03/08 06:42:21;;;;;;;44.50;23.60;;;;;;;0.14;80.73;100905.66;5043925;28;20387;-71
2022/03/08 06:44:47;;;;;;;47.03;25.08;;;;;;;0.20;79.80;100906.31;5041294;28;20492;-70
2022/03/08 06:47:12;;;;;;;44.63;24.02;;;;;;;0.26;79.22;100905.22;5041516;28;20029;-70
2022/03/08 06:49:40;;;;;;;46.28;24.50;;;;;;;0.39;78.00;100917.94;5046050;28;20066;-70
2022/03/08 06:52:07;;;;;;;43.03;25.05;;;;;;;0.42;77.34;100906.38;5046652;28;20037;-70
2022/03/08 06:54:32;;;;;;;42.92;23.80;;;;;;;0.49;76.45;100919.31;5044681;28;20025;-70
2022/03/08 06:56:58;;;;;;;41.50;23.63;;;;;;;0.62;75.69;100923.19;5042712;28;20068;-70
2022/03/08 06:59:24;;;;;;;45.05;24.83;;;;;;;0.69;75.19;100931.72;5039988;28;20059;-70
2022/03/08 07:01:49;;;;;;;48.35;24.27;;;;;;;0.76;73.18;100928.81;5040397;28;20025;-70
2022/03/08 07:04:15;;;;;;;46.03;24.00;;;;;;;0.81;73.42;100932.13;5039478;28;20028;-71
2022/03/08 07:06:40;;;;;;;42.63;23.50;;;;;;;0.81;72.92;100926.84;5043536;28;20477;-71
2022/03/08 07:09:06;;;;;;;51.75;24.80;;;;;;;0.90;73.11;100944.97;5037523;28;20029;-70
2022/03/08 07:11:33;;;;;;;48.28;26.25;;;;;;;0.90;72.81;100928.28;5041779;28;20029;-70
2022/03/08 07:13:58;;;;;;;49.70;25.65;;;;;;;0.96;72.84;100936.81;5038721;28;20052;-70
2022/03/08 07:16:23;;;;;;;51.70;27.85;;;;;;;1.02;72.67;100933.94;5043503;28;20170;-70
2022/03/08 07:18:49;;;;;;;48.03;26.48;;;;;;;1.11;72.63;100946.78;5041495;28;20432;-70
2022/03/08 07:21:14;;;;;;;45.45;25.60;;;;;;;1.15;72.54;100939.59;5040537;28;20579;-70
2022/03/08 07:23:40;;;;;;;47.40;24.70;;;;;;;1.22;71.29;100939.28;5043895;28;20056;-70
2022/03/08 07:26:06;;;;;;;44.17;24.08;;;;;;;1.29;71.53;100945.19;5039385;28;20108;-70
2022/03/08 07:28:31;;;;;;;40.28;22.83;;;;;;;1.33;71.86;100945.03;5044041;28;20087;-70
2022/03/08 07:30:57;;;;;;;45.15;24.15;;;;;;;1.49;70.21;100942.59;5033869;28;20025;-70
2022/03/08 07:33:22;;;;;;;41.70;21.80;;;;;;;1.55;70.14;100945.84;5038765;28;20428;-70
2022/03/08 07:35:48;;;;;;;35.88;20.33;;;;;;;1.59;70.20;100928.97;5037654;28;20469;-70
2022/03/08 07:38:15;;;;;;;39.63;21.95;;;;;;;1.88;68.45;100941.81;5032388;28;20112;-70
2022/03/08 07:40:41;;;;;;;39.60;22.38;;;;;;;1.98;68.27;100936.97;5035749;28;20046;-70
2022/03/08 07:43:06;;;;;;;41.63;20.98;;;;;;;2.15;68.97;100942.41;5034063;28;20036;-70
2022/03/08 07:45:33;;;;;;;36.50;20.00;;;;;;;2.38;68.95;100941.41;5041483;28;20033;-71
2022/03/08 07:47:58;;;;;;;36.88;21.08;;;;;;;2.57;68.18;100942.28;5036784;28;20036;-71
2022/03/08 07:50:25;;;;;;;34.72;21.30;;;;;;;2.71;66.58;100945.16;5045147;28;20032;-71
2022/03/08 07:52:51;;;;;;;40.97;21.50;;;;;;;2.78;66.00;100925.41;5040869;28;20021;-71
2022/03/08 07:55:17;;;;;;;31.27;19.88;;;;;;;2.89;65.63;100934.56;5046392;28;20025;-71
2022/03/08 07:57:43;;;;;;;31.60;17.88;;;;;;;2.91;65.67;100926.56;5046203;28;20885;-71
2022/03/08 08:00:09;;;;;;;26.45;17.48;;;;;;;3.00;65.32;100931.44;5042240;28;20029;-71
2022/03/08 08:02:35;;;;;;;30.60;18.23;;;;;;;3.10;64.82;100924.75;5041223;28;20499;-71
2022/03/08 08:05:00;;;;;;;26.70;16.95;;;;;;;3.64;64.33;100930.03;5040840;28;20104;-71
2022/03/08 08:07:26;;;;;;;29.90;17.10;;;;;;;3.91;63.35;100920.69;5036450;28;20456;-71
2022/03/08 08:09:51;;;;;;;26.88;17.20;;;;;;;4.44;59.91;100916.06;5039421;28;20104;-71
2022/03/08 08:12:17;;;;;;;28.00;17.25;;;;;;;4.63;58.02;100920.34;5038747;28;20051;-71
2022/03/08 08:14:42;;;;;;;27.30;16.42;;;;;;;4.73;57.40;100920.69;5048384;28;20033;-71
2022/03/08 08:17:08;;;;;;;28.17;17.42;;;;;;;4.81;57.97;100912.28;5035716;28;20021;-71
2022/03/08 08:19:33;;;;;;;24.55;15.75;;;;;;;5.35;57.62;100898.59;5039812;28;20406;-71
2022/03/08 08:21:59;;;;;;;27.42;16.23;;;;;;;6.52;54.76;100897.66;5053649;28;20115;-71
2022/03/08 08:24:24;;;;;;;22.52;15.65;;;;;;;7.83;51.69;100897.03;5055090;28;20036;-71
2022/03/08 08:26:50;;;;;;;22.70;14.25;;;;;;;9.15;47.61;100894.78;5052987;28;20025;-71
2022/03/08 08:29:15;;;;;;;18.05;13.93;;;;;;;10.33;44.55;100884.00;5037146;28;20496;-72
2022/03/08 08:31:41;;;;;;;18.27;12.90;;;;;;;10.94;42.48;100887.06;5039114;28;20039;-72
2022/03/08 08:34:07;;;;;;;21.20;13.88;;;;;;;10.86;41.29;100883.28;5046195;28;20488;-72
2022/03/08 08:36:33;;;;;;;18.45;13.27;;;;;;;10.62;41.77;100886.09;5040088;28;20037;-71
2022/03/08 08:38:59;;;;;;;18.10;11.77;;;;;;;10.63;41.17;100878.91;5052985;28;20381;-71
2022/03/08 08:41:25;;;;;;;14.48;10.98;;;;;;;10.31;42.13;100893.97;5041945;28;20029;-72
2022/03/08 08:43:51;;;;;;;17.38;11.27;;;;;;;9.99;42.49;100893.72;5046142;28;20080;-71
2022/03/08 08:46:16;;;;;;;18.58;11.52;;;;;;;9.70;43.22;100886.22;5054138;28;20037;-71
2022/03/08 08:48:42;;;;;;;15.85;11.15;;;;;;;9.41;43.17;100892.88;5039052;28;20083;-71
2022/03/08 08:51:07;;;;;;;16.92;11.15;;;;;;;9.02;43.87;100886.78;5034794;28;20018;-71
2022/03/08 08:53:33;;;;;;;16.73;11.50;;;;;;;8.75;44.73;100894.13;5045512;28;20476;-71
2022/03/08 08:55:59;;;;;;;20.38;12.95;;;;;;;8.65;44.59;100886.88;5054592;28;20059;-71
2022/03/08 08:58:24;;;;;;;19.25;13.13;;;;;;;8.56;45.51;100877.69;5054807;28;20037;-72
2022/03/08 09:00:49;;;;;;;20.40;12.70;;;;;;;8.59;45.07;100892.66;5048366;28;20037;-71
2022/03/08 09:03:16;;;;;;;18.15;11.50;;;;;;;8.56;44.91;100890.19;5034477;28;20056;-71
2022/03/08 09:05:45;;;;;;;21.83;12.07;;;;;;;9.49;43.55;100887.81;5039347;28;20033;-71
2022/03/08 09:08:11;;;;;;;23.83;12.30;;;;;;;10.90;40.69;100880.22;5034438;28;20025;-71
2022/03/08 09:10:37;;;;;;;21.58;11.25;;;;;;;12.68;38.00;100871.31;5034580;28;20600;-71
2022/03/08 09:13:03;;;;;;;16.77;11.82;;;;;;;14.35;34.85;100863.91;5033007;28;20033;-71
2022/03/08 09:15:29;;;;;;;19.35;12.13;;;;;;;15.76;32.41;100851.69;5037389;28;20024;-71
2022/03/08 09:17:55;;;;;;;14.60;9.65;;;;;;;16.62;30.31;100859.84;5047717;28;20056;-71
2022/03/08 09:20:20;;;;;;;14.73;10.32;;;;;;;17.64;29.35;100834.38;5033633;28;20057;-71
2022/03/08 09:22:46;;;;;;;15.65;9.38;;;;;;;18.86;27.58;100840.38;5033846;28;20021;-72
2022/03/08 09:25:11;;;;;;;16.33;10.05;;;;;;;18.69;27.13;100852.31;5037269;28;20029;-72
2022/03/08 09:27:37;;;;;;;13.65;10.55;;;;;;;19.70;26.30;100844.06;5038903;28;20029;-72
2022/03/08 09:30:06;;;;;;;17.55;9.82;;;;;;;19.65;25.79;100835.59;5041425;28;20470;-71
2022/03/08 09:32:32;;;;;;;13.90;9.20;;;;;;;19.55;26.26;100836.84;5029486;28;20032;-72
2022/03/08 09:34:58;;;;;;;10.95;9.00;;;;;;;20.45;25.27;100842.28;5040724;28;20033;-71
2022/03/08 09:37:23;;;;;;;12.27;9.43;;;;;;;20.98;24.54;100835.75;5037370;28;20116;-72
2022/03/08 09:39:49;;;;;;;15.25;10.45;;;;;;;20.92;24.11;100826.41;5033228;28;20041;-72
2022/03/08 09:42:15;;;;;;;15.77;10.52;;;;;;;21.25;23.74;100827.72;5046028;28;20047;-72
2022/03/08 09:44:41;;;;;;;26.83;10.43;;;;;;;21.28;23.84;100826.50;5044896;28;20029;-72
2022/03/08 09:47:07;;;;;;;13.07;8.13;;;;;;;21.38;23.64;100824.31;5040945;28;20025;-72
2022/03/08 09:49:32;;;;;;;19.35;8.57;;;;;;;22.01;23.12;100827.97;5043059;28;20039;-72
2022/03/08 09:51:58;;;;;;;13.45;8.48;;;;;;;22.01;22.64;100825.25;5035652;28;20033;-72
2022/03/08 09:54:23;;;;;;;14.73;8.80;;;;;;;21.45;23.14;100830.69;5041899;28;20084;-72
2022/03/08 09:56:49;;;;;;;10.55;9.15;;;;;;;21.42;23.27;100831.06;5045980;28;20021;-72
2022/03/08 09:59:18;;;;;;;12.95;8.90;;;;;;;21.54;23.48;100816.72;5041520;28;20060;-72
2022/03/08 10:01:45;;;;;;;13.05;9.25;;;;;;;21.48;23.47;100817.47;5049461;28;20610;-72
2022/03/08 10:04:16;;;;;;;13.48;8.30;;;;;;;20.66;23.45;100830.66;5044631;28;20029;-72
2022/03/08 10:06:43;;;;;;;9.52;8.52;;;;;;;19.82;24.19;100826.28;5038766;28;20116;-72
2022/03/08 10:09:15;;;;;;;9.38;8.00;;;;;;;19.28;24.86;100832.75;5040357;28;20029;-72
2022/03/08 10:11:41;;;;;;;9.45;7.97;;;;;;;19.43;25.24;100819.22;5041750;28;20564;-72
2022/03/08 10:14:10;;;;;;;9.20;7.97;;;;;;;19.82;24.60;100825.41;5038330;28;20056;-72
2022/03/08 10:16:43;;;;;;;11.35;8.50;;;;;;;20.57;23.52;100818.13;5045562;28;20071;-72
2022/03/08 10:19:10;;;;;;;11.23;8.63;;;;;;;20.95;22.94;100819.75;5041793;28;20497;-72
2022/03/08 10:21:38;;;;;;;9.82;7.60;;;;;;;21.88;21.84;100811.44;5042796;28;20030;-72
2022/03/08 10:24:15;;;;;;;8.23;7.30;;;;;;;22.38;21.88;100810.41;5039474;28;20120;-72
2022/03/08 10:26:51;;;;;;;10.55;7.35;;;;;;;22.38;21.68;100805.78;5040557;28;20056;-72
2022/03/08 10:29:28;;;;;;;11.15;6.75;;;;;;;22.23;21.50;100807.78;5043745;28;20087;-72
2022/03/08 10:32:07;;;;;;;8.35;6.88;;;;;;;21.46;21.87;100805.06;5045068;28;20037;-72
2022/03/08 10:34:35;;;;;;;9.32;5.75;;;;;;;20.91;22.19;100808.34;5034433;28;20030;-72
2022/03/08 10:37:14;;;;;;;8.38;5.63;;;;;;;19.41;23.43;100822.13;5038550;28;20029;-72
2022/03/08 10:39:58;;;;;;;14.25;7.10;;;;;;;17.27;25.43;100832.03;5046955;28;20095;-72
2022/03/08 10:42:26;;;;;;;9.95;7.30;;;;;;;15.68;27.35;100828.13;5049910;28;20607;-72
2022/03/08 10:44:59;;;;;;;9.52;7.15;;;;;;;14.91;28.77;100843.13;5049193;28;20370;-72
2022/03/08 10:47:25;;;;;;;11.43;8.75;;;;;;;14.21;29.98;100834.66;5033108;28;20029;-71
2022/03/08 10:50:00;;;;;;;11.93;7.90;;;;;;;13.87;30.24;100841.53;5051126;28;20036;-71
2022/03/08 10:52:34;;;;;;;13.93;8.60;;;;;;;13.22;31.14;100820.63;5050509;28;20052;-71
2022/03/08 10:55:16;;;;;;;9.98;8.38;;;;;;;12.75;32.69;100837.50;5052802;28;20102;-72
2022/03/08 10:57:45;;;;;;;10.38;7.38;;;;;;;12.31;33.46;100824.38;5052968;28;20025;-72
2022/03/08 11:00:13;;;;;;;10.73;7.70;;;;;;;11.74;33.06;100841.97;5050741;28;20397;-71
2022/03/08 11:03:01;;;;;;;10.68;8.43;;;;;;;11.21;34.94;100841.03;5036256;28;20025;-71
2022/03/08 11:05:35;;;;;;;12.85;6.40;;;;;;;11.03;33.70;100819.22;5036504;28;20078;-72
2022/03/08 11:08:00;;;;;;;18.67;5.88;;;;;;;10.86;33.29;100833.16;5039693;28;20370;-72
2022/03/08 11:10:28;;;;;;;12.05;4.60;;;;;;;10.58;32.36;100839.03;5045678;28;20049;-72
2022/03/08 11:12:55;;;;;;;14.18;4.68;;;;;;;10.43;32.49;100847.44;5040939;28;20033;-71